sensor_id;sensor_type;location;lat;lon;timestamp;P1;durP1;ratioP1;P2;durP2;ratioP2
4943;SDS011;2487;52.224;11.006;2022-10-19T00:02:25;0.50;;;0.50;;
4943;SDS011;2487;52.224;11.006;2022-10-19T00:04:50;0.50;;;0.50;;
4943;SDS011;2487;52.224;11.006;2022-10-19T00:07:16;0.50;;;0.50;;
4943;SDS011;2487;52.224;11.006;2022-10-19T00:09:42;0.50;;;0.50;;
4943;SDS011;2487;52.224;11.006;2022-10-19T00:12:08;0.50;;;0.50;;
4943;SDS011;2487;52.224;11.006;2022-10-19T00:14:34;0.40;;;0.40;;
4943;SDS011;2487;52.224;11.006;2022-10-19T00:16:59;0.40;;;0.40;;
4943;SDS011;2487;52.224;11.006;2022-10-19T00:19:26;0.50;;;0.50;;
4943;SDS011;2487;52.224;11.006;2022-10-19T00:21:53;0.47;;;0.47;;
4943;SDS011;2487;52.224;11.006;2022-10-19T00:24:18;0.50;;;0.50;;
4943;SDS011;2487;52.224;11.006;2022-10-19T00:26:45;0.40;;;0.40;;
4943;SDS011;2487;52.224;11.006;2022-10-19T00:29:11;0.50;;;0.50;;
4943;SDS011;2487;52.224;11.006;2022-10-19T00:31:38;0.40;;;0.40;;
4943;SDS011;2487;52.224;11.006;2022-10-19T00:34:04;0.43;;;0.43;;
4943;SDS011;2487;52.224;11.006;2022-10-19T00:36:31;0.47;;;0.47;;
4943;SDS011;2487;52.224;11.006;2022-10-19T00:38:58;0.50;;;0.50;;
4943;SDS011;2487;52.224;11.006;2022-10-19T00:41:26;0.50;;;0.50;;
4943;SDS011;2487;52.224;11.006;2022-10-19T00:44:01;0.50;;;0.50;;
4943;SDS011;2487;52.224;11.006;2022-10-19T00:46:31;0.40;;;0.40;;
4943;SDS011;2487;52.224;11.006;2022-10-19T00:49:15;0.50;;;0.50;;
4943;SDS011;2487;52.224;11.006;2022-10-19T00:51:44;0.50;;;0.50;;
4943;SDS011;2487;52.224;11.006;2022-10-19T00:54:13;0.50;;;0.50;;
4943;SDS011;2487;52.224;11.006;2022-10-19T00:56:40;0.40;;;0.40;;
4943;SDS011;2487;52.224;11.006;2022-10-19T00:59:07;0.50;;;0.50;;
4943;SDS011;2487;52.224;11.006;2022-10-19T01:01:34;0.40;;;0.40;;
4943;SDS011;2487;52.224;11.006;2022-10-19T01:04:00;0.50;;;0.50;;
4943;SDS011;2487;52.224;11.006;2022-10-19T01:06:27;0.50;;;0.50;;
4943;SDS011;2487;52.224;11.006;2022-10-19T01:08:53;0.40;;;0.40;;
4943;SDS011;2487;52.224;11.006;2022-10-19T01:19:42;0.40;;;0.40;;
4943;SDS011;2487;52.224;11.006;2022-10-19T01:31:32;0.43;;;0.43;;
4943;SDS011;2487;52.224;11.006;2022-10-19T01:39:07;0.50;;;0.50;;
4943;SDS011;2487;52.224;11.006;2022-10-19T01:44:13;0.40;;;0.40;;
4943;SDS011;2487;52.224;11.006;2022-10-19T01:46:46;0.50;;;0.50;;
4943;SDS011;2487;52.224;11.006;2022-10-19T01:50:18;0.43;;;0.43;;
4943;SDS011;2487;52.224;11.006;2022-10-19T01:52:19;0.43;;;0.43;;
4943;SDS011;2487;52.224;11.006;2022-10-19T01:54:48;0.40;;;0.40;;
4943;SDS011;2487;52.224;11.006;2022-10-19T01:57:19;0.50;;;0.50;;
4943;SDS011;2487;52.224;11.006;2022-10-19T01:59:48;0.50;;;0.50;;
4943;SDS011;2487;52.224;11.006;2022-10-19T02:02:14;0.40;;;0.40;;
4943;SDS011;2487;52.224;11.006;2022-10-19T02:04:42;0.50;;;0.50;;
4943;SDS011;2487;52.224;11.006;2022-10-19T02:07:08;0.43;;;0.43;;
4943;SDS011;2487;52.224;11.006;2022-10-19T02:09:35;0.50;;;0.50;;
4943;SDS011;2487;52.224;11.006;2022-10-19T02:12:02;0.50;;;0.50;;
4943;SDS011;2487;52.224;11.006;2022-10-19T02:14:36;0.40;;;0.40;;
4943;SDS011;2487;52.224;11.006;2022-10-19T02:17:17;0.50;;;0.50;;
4943;SDS011;2487;52.224;11.006;2022-10-19T02:19:46;0.50;;;0.50;;
4943;SDS011;2487;52.224;11.006;2022-10-19T02:22:12;0.50;;;0.50;;
4943;SDS011;2487;52.224;11.006;2022-10-19T02:24:38;0.40;;;0.40;;
4943;SDS011;2487;52.224;11.006;2022-10-19T02:27:04;0.40;;;0.40;;
4943;SDS011;2487;52.224;11.006;2022-10-19T02:29:32;0.50;;;0.50;;
4943;SDS011;2487;52.224;11.006;2022-10-19T02:31:59;0.50;;;0.50;;
4943;SDS011;2487;52.224;11.006;2022-10-19T02:34:25;0.50;;;0.50;;
4943;SDS011;2487;52.224;11.006;2022-10-19T02:36:51;0.50;;;0.50;;
4943;SDS011;2487;52.224;11.006;2022-10-19T02:39:18;0.50;;;0.50;;
4943;SDS011;2487;52.224;11.006;2022-10-19T02:41:47;0.50;;;0.50;;
4943;SDS011;2487;52.224;11.006;2022-10-19T02:44:21;0.50;;;0.50;;
4943;SDS011;2487;52.224;11.006;2022-10-19T02:46:53;0.50;;;0.50;;
4943;SDS011;2487;52.224;11.006;2022-10-19T02:49:40;0.40;;;0.40;;
4943;SDS011;2487;52.224;11.006;2022-10-19T02:52:08;0.47;;;0.47;;
4943;SDS011;2487;52.224;11.006;2022-10-19T02:54:36;0.40;;;0.40;;
4943;SDS011;2487;52.224;11.006;2022-10-19T02:57:12;0.50;;;0.50;;
4943;SDS011;2487;52.224;11.006;2022-10-19T02:59:40;0.50;;;0.50;;
4943;SDS011;2487;52.224;11.006;2022-10-19T03:02:06;0.40;;;0.40;;
4943;SDS011;2487;52.224;11.006;2022-10-19T03:04:31;0.50;;;0.50;;
4943;SDS011;2487;52.224;11.006;2022-10-19T03:06:57;0.50;;;0.50;;
4943;SDS011;2487;52.224;11.006;2022-10-19T03:09:23;0.40;;;0.40;;
4943;SDS011;2487;52.224;11.006;2022-10-19T03:11:49;0.40;;;0.40;;
4943;SDS011;2487;52.224;11.006;2022-10-19T03:14:14;0.47;;;0.47;;
4943;SDS011;2487;52.224;11.006;2022-10-19T03:16:40;0.50;;;0.50;;
4943;SDS011;2487;52.224;11.006;2022-10-19T03:19:05;0.40;;;0.40;;
4943;SDS011;2487;52.224;11.006;2022-10-19T03:21:32;0.50;;;0.50;;
4943;SDS011;2487;52.224;11.006;2022-10-19T03:23:58;0.50;;;0.50;;
4943;SDS011;2487;52.224;11.006;2022-10-19T03:26:25;0.50;;;0.50;;
4943;SDS011;2487;52.224;11.006;2022-10-19T03:28:50;0.50;;;0.50;;
4943;SDS011;2487;52.224;11.006;2022-10-19T03:31:16;0.50;;;0.50;;
4943;SDS011;2487;52.224;11.006;2022-10-19T03:33:43;0.40;;;0.40;;
4943;SDS011;2487;52.224;11.006;2022-10-19T03:38:40;0.50;;;0.50;;
4943;SDS011;2487;52.224;11.006;2022-10-19T03:41:07;0.50;;;0.50;;
4943;SDS011;2487;52.224;11.006;2022-10-19T03:43:33;0.50;;;0.50;;
4943;SDS011;2487;52.224;11.006;2022-10-19T03:45:59;0.40;;;0.40;;
4943;SDS011;2487;52.224;11.006;2022-10-19T03:48:24;0.50;;;0.50;;
4943;SDS011;2487;52.224;11.006;2022-10-19T03:51:05;0.50;;;0.50;;
4943;SDS011;2487;52.224;11.006;2022-10-19T03:53:35;0.50;;;0.50;;
4943;SDS011;2487;52.224;11.006;2022-10-19T03:56:02;0.40;;;0.40;;
4943;SDS011;2487;52.224;11.006;2022-10-19T03:58:30;0.50;;;0.50;;
4943;SDS011;2487;52.224;11.006;2022-10-19T04:00:57;0.50;;;0.50;;
4943;SDS011;2487;52.224;11.006;2022-10-19T04:03:23;0.50;;;0.50;;
4943;SDS011;2487;52.224;11.006;2022-10-19T04:05:49;0.50;;;0.50;;
4943;SDS011;2487;52.224;11.006;2022-10-19T04:08:16;0.40;;;0.40;;
4943;SDS011;2487;52.224;11.006;2022-10-19T04:10:41;0.50;;;0.50;;
4943;SDS011;2487;52.224;11.006;2022-10-19T04:13:07;0.50;;;0.50;;
4943;SDS011;2487;52.224;11.006;2022-10-19T04:15:33;0.50;;;0.50;;
4943;SDS011;2487;52.224;11.006;2022-10-19T04:17:58;0.50;;;0.50;;
4943;SDS011;2487;52.224;11.006;2022-10-19T04:20:24;0.43;;;0.43;;
4943;SDS011;2487;52.224;11.006;2022-10-19T04:22:53;0.50;;;0.50;;
4943;SDS011;2487;52.224;11.006;2022-10-19T04:25:18;0.50;;;0.50;;
4943;SDS011;2487;52.224;11.006;2022-10-19T04:27:44;0.50;;;0.50;;
4943;SDS011;2487;52.224;11.006;2022-10-19T04:30:10;0.40;;;0.40;;
4943;SDS011;2487;52.224;11.006;2022-10-19T04:32:36;0.50;;;0.50;;
4943;SDS011;2487;52.224;11.006;2022-10-19T04:35:01;0.50;;;0.50;;
4943;SDS011;2487;52.224;11.006;2022-10-19T04:37:27;0.50;;;0.50;;
4943;SDS011;2487;52.224;11.006;2022-10-19T04:39:53;0.40;;;0.40;;
4943;SDS011;2487;52.224;11.006;2022-10-19T04:42:20;0.50;;;0.50;;
4943;SDS011;2487;52.224;11.006;2022-10-19T04:44:45;0.40;;;0.40;;
4943;SDS011;2487;52.224;11.006;2022-10-19T04:47:11;0.50;;;0.50;;
4943;SDS011;2487;52.224;11.006;2022-10-19T04:49:37;0.50;;;0.50;;
4943;SDS011;2487;52.224;11.006;2022-10-19T04:52:02;0.50;;;0.50;;
4943;SDS011;2487;52.224;11.006;2022-10-19T04:54:28;0.50;;;0.50;;
4943;SDS011;2487;52.224;11.006;2022-10-19T04:56:54;0.50;;;0.50;;
4943;SDS011;2487;52.224;11.006;2022-10-19T04:59:19;0.50;;;0.50;;
4943;SDS011;2487;52.224;11.006;2022-10-19T05:01:45;0.50;;;0.50;;
4943;SDS011;2487;52.224;11.006;2022-10-19T05:04:10;0.50;;;0.50;;
4943;SDS011;2487;52.224;11.006;2022-10-19T05:06:36;0.40;;;0.40;;
4943;SDS011;2487;52.224;11.006;2022-10-19T05:09:02;0.40;;;0.40;;
4943;SDS011;2487;52.224;11.006;2022-10-19T05:11:28;0.50;;;0.50;;
4943;SDS011;2487;52.224;11.006;2022-10-19T05:13:54;0.50;;;0.50;;
4943;SDS011;2487;52.224;11.006;2022-10-19T05:16:21;0.40;;;0.40;;
4943;SDS011;2487;52.224;11.006;2022-10-19T05:18:49;0.40;;;0.40;;
4943;SDS011;2487;52.224;11.006;2022-10-19T05:21:15;0.50;;;0.50;;
4943;SDS011;2487;52.224;11.006;2022-10-19T05:23:41;0.50;;;0.50;;
4943;SDS011;2487;52.224;11.006;2022-10-19T05:26:11;0.40;;;0.40;;
4943;SDS011;2487;52.224;11.006;2022-10-19T05:28:39;0.50;;;0.50;;
4943;SDS011;2487;52.224;11.006;2022-10-19T05:31:09;0.47;;;0.47;;
4943;SDS011;2487;52.224;11.006;2022-10-19T05:33:37;0.40;;;0.40;;
4943;SDS011;2487;52.224;11.006;2022-10-19T05:38:39;0.50;;;0.50;;
4943;SDS011;2487;52.224;11.006;2022-10-19T05:41:05;0.50;;;0.50;;
4943;SDS011;2487;52.224;11.006;2022-10-19T05:43:31;0.50;;;0.50;;
4943;SDS011;2487;52.224;11.006;2022-10-19T05:46:01;0.50;;;0.50;;
4943;SDS011;2487;52.224;11.006;2022-10-19T05:48:31;0.40;;;0.40;;
4943;SDS011;2487;52.224;11.006;2022-10-19T05:50:58;0.47;;;0.47;;
4943;SDS011;2487;52.224;11.006;2022-10-19T05:53:25;0.50;;;0.50;;
4943;SDS011;2487;52.224;11.006;2022-10-19T05:55:52;0.50;;;0.50;;
4943;SDS011;2487;52.224;11.006;2022-10-19T05:58:17;0.50;;;0.50;;
4943;SDS011;2487;52.224;11.006;2022-10-19T06:00:49;0.50;;;0.50;;
4943;SDS011;2487;52.224;11.006;2022-10-19T06:03:15;0.50;;;0.50;;
4943;SDS011;2487;52.224;11.006;2022-10-19T06:05:41;0.40;;;0.40;;
4943;SDS011;2487;52.224;11.006;2022-10-19T06:08:07;0.50;;;0.50;;
4943;SDS011;2487;52.224;11.006;2022-10-19T06:10:33;0.47;;;0.47;;
4943;SDS011;2487;52.224;11.006;2022-10-19T06:12:58;0.50;;;0.50;;
4943;SDS011;2487;52.224;11.006;2022-10-19T06:15:24;0.50;;;0.50;;
4943;SDS011;2487;52.224;11.006;2022-10-19T06:17:50;0.50;;;0.50;;
4943;SDS011;2487;52.224;11.006;2022-10-19T06:20:15;0.50;;;0.50;;
4943;SDS011;2487;52.224;11.006;2022-10-19T06:22:41;0.50;;;0.50;;
4943;SDS011;2487;52.224;11.006;2022-10-19T06:25:07;0.50;;;0.50;;
4943;SDS011;2487;52.224;11.006;2022-10-19T06:27:33;0.50;;;0.50;;
4943;SDS011;2487;52.224;11.006;2022-10-19T06:29:58;0.50;;;0.50;;
4943;SDS011;2487;52.224;11.006;2022-10-19T06:32:24;0.47;;;0.47;;
4943;SDS011;2487;52.224;11.006;2022-10-19T06:34:50;0.50;;;0.50;;
4943;SDS011;2487;52.224;11.006;2022-10-19T06:37:15;0.50;;;0.50;;
4943;SDS011;2487;52.224;11.006;2022-10-19T06:39:42;0.50;;;0.50;;
4943;SDS011;2487;52.224;11.006;2022-10-19T06:42:08;0.50;;;0.50;;
4943;SDS011;2487;52.224;11.006;2022-10-19T06:44:33;0.50;;;0.50;;
4943;SDS011;2487;52.224;11.006;2022-10-19T06:46:59;0.40;;;0.40;;
4943;SDS011;2487;52.224;11.006;2022-10-19T06:49:25;0.40;;;0.40;;
4943;SDS011;2487;52.224;11.006;2022-10-19T06:51:50;0.40;;;0.40;;
4943;SDS011;2487;52.224;11.006;2022-10-19T06:54:16;0.50;;;0.50;;
4943;SDS011;2487;52.224;11.006;2022-10-19T06:56:41;0.50;;;0.50;;
4943;SDS011;2487;52.224;11.006;2022-10-19T06:59:07;0.50;;;0.50;;
4943;SDS011;2487;52.224;11.006;2022-10-19T07:01:33;0.50;;;0.50;;
4943;SDS011;2487;52.224;11.006;2022-10-19T07:03:58;0.50;;;0.50;;
4943;SDS011;2487;52.224;11.006;2022-10-19T07:06:25;0.50;;;0.50;;
4943;SDS011;2487;52.224;11.006;2022-10-19T07:08:51;0.50;;;0.50;;
4943;SDS011;2487;52.224;11.006;2022-10-19T07:11:18;0.50;;;0.50;;
4943;SDS011;2487;52.224;11.006;2022-10-19T07:13:45;0.50;;;0.50;;
4943;SDS011;2487;52.224;11.006;2022-10-19T07:16:11;0.50;;;0.50;;
4943;SDS011;2487;52.224;11.006;2022-10-19T07:18:38;0.43;;;0.43;;
4943;SDS011;2487;52.224;11.006;2022-10-19T07:21:07;0.50;;;0.50;;
4943;SDS011;2487;52.224;11.006;2022-10-19T07:23:35;0.50;;;0.50;;
4943;SDS011;2487;52.224;11.006;2022-10-19T07:26:03;0.40;;;0.40;;
4943;SDS011;2487;52.224;11.006;2022-10-19T07:28:30;0.50;;;0.50;;
4943;SDS011;2487;52.224;11.006;2022-10-19T07:30:56;0.50;;;0.50;;
4943;SDS011;2487;52.224;11.006;2022-10-19T07:33:22;0.50;;;0.50;;
4943;SDS011;2487;52.224;11.006;2022-10-19T07:35:47;0.47;;;0.47;;
4943;SDS011;2487;52.224;11.006;2022-10-19T07:38:13;0.40;;;0.40;;
4943;SDS011;2487;52.224;11.006;2022-10-19T07:40:39;0.50;;;0.50;;
4943;SDS011;2487;52.224;11.006;2022-10-19T07:43:04;0.50;;;0.50;;
4943;SDS011;2487;52.224;11.006;2022-10-19T07:45:31;0.50;;;0.50;;
4943;SDS011;2487;52.224;11.006;2022-10-19T07:47:58;0.50;;;0.50;;
4943;SDS011;2487;52.224;11.006;2022-10-19T07:50:24;0.50;;;0.50;;
4943;SDS011;2487;52.224;11.006;2022-10-19T07:52:51;0.50;;;0.50;;
4943;SDS011;2487;52.224;11.006;2022-10-19T07:55:17;0.50;;;0.50;;
4943;SDS011;2487;52.224;11.006;2022-10-19T07:57:47;0.50;;;0.50;;
4943;SDS011;2487;52.224;11.006;2022-10-19T08:00:17;0.50;;;0.50;;
4943;SDS011;2487;52.224;11.006;2022-10-19T08:02:42;0.50;;;0.50;;
4943;SDS011;2487;52.224;11.006;2022-10-19T08:05:08;0.50;;;0.50;;
4943;SDS011;2487;52.224;11.006;2022-10-19T08:07:35;0.50;;;0.50;;
4943;SDS011;2487;52.224;11.006;2022-10-19T08:10:00;0.50;;;0.50;;
4943;SDS011;2487;52.224;11.006;2022-10-19T08:12:26;0.50;;;0.50;;
4943;SDS011;2487;52.224;11.006;2022-10-19T08:14:52;0.50;;;0.50;;
4943;SDS011;2487;52.224;11.006;2022-10-19T08:17:18;0.50;;;0.50;;
4943;SDS011;2487;52.224;11.006;2022-10-19T08:19:46;0.50;;;0.50;;
4943;SDS011;2487;52.224;11.006;2022-10-19T08:22:12;0.50;;;0.50;;
4943;SDS011;2487;52.224;11.006;2022-10-19T08:24:38;0.50;;;0.50;;
4943;SDS011;2487;52.224;11.006;2022-10-19T08:27:04;0.50;;;0.50;;
4943;SDS011;2487;52.224;11.006;2022-10-19T08:29:29;0.50;;;0.50;;
4943;SDS011;2487;52.224;11.006;2022-10-19T08:31:55;0.50;;;0.50;;
4943;SDS011;2487;52.224;11.006;2022-10-19T08:34:21;0.50;;;0.50;;
4943;SDS011;2487;52.224;11.006;2022-10-19T08:36:46;0.50;;;0.50;;
4943;SDS011;2487;52.224;11.006;2022-10-19T08:39:12;0.50;;;0.50;;
4943;SDS011;2487;52.224;11.006;2022-10-19T08:44:15;0.50;;;0.50;;
4943;SDS011;2487;52.224;11.006;2022-10-19T08:49:40;0.50;;;0.50;;
4943;SDS011;2487;52.224;11.006;2022-10-19T08:52:10;0.50;;;0.50;;
4943;SDS011;2487;52.224;11.006;2022-10-19T08:54:40;0.50;;;0.50;;
4943;SDS011;2487;52.224;11.006;2022-10-19T08:57:19;0.50;;;0.50;;
4943;SDS011;2487;52.224;11.006;2022-10-19T09:00:08;0.40;;;0.40;;
4943;SDS011;2487;52.224;11.006;2022-10-19T09:05:31;0.50;;;0.50;;
4943;SDS011;2487;52.224;11.006;2022-10-19T09:08:03;0.50;;;0.50;;
4943;SDS011;2487;52.224;11.006;2022-10-19T09:10:33;25.10;;;1.00;;
4943;SDS011;2487;52.224;11.006;2022-10-19T09:18:02;16.30;;;0.90;;
4943;SDS011;2487;52.224;11.006;2022-10-19T09:20:57;8.47;;;0.90;;
4943;SDS011;2487;52.224;11.006;2022-10-19T09:25:55;9.80;;;0.90;;
4943;SDS011;2487;52.224;11.006;2022-10-19T09:30:56;8.87;;;0.90;;
4943;SDS011;2487;52.224;11.006;2022-10-19T09:33:31;10.73;;;0.90;;
4943;SDS011;2487;52.224;11.006;2022-10-19T09:35:59;2.10;;;0.70;;
4943;SDS011;2487;52.224;11.006;2022-10-19T09:38:47;2.27;;;0.70;;
4943;SDS011;2487;52.224;11.006;2022-10-19T09:41:19;1.43;;;0.70;;
4943;SDS011;2487;52.224;11.006;2022-10-19T09:43:50;2.13;;;0.70;;
4943;SDS011;2487;52.224;11.006;2022-10-19T09:47:04;5.30;;;0.80;;
4943;SDS011;2487;52.224;11.006;2022-10-19T09:52:18;0.90;;;0.60;;
4943;SDS011;2487;52.224;11.006;2022-10-19T09:54:58;0.50;;;0.50;;
4943;SDS011;2487;52.224;11.006;2022-10-19T09:57:26;0.60;;;0.60;;
4943;SDS011;2487;52.224;11.006;2022-10-19T09:59:51;1.30;;;0.70;;
4943;SDS011;2487;52.224;11.006;2022-10-19T10:02:18;1.50;;;0.70;;
4943;SDS011;2487;52.224;11.006;2022-10-19T10:04:57;0.80;;;0.60;;
4943;SDS011;2487;52.224;11.006;2022-10-19T10:07:31;0.50;;;0.50;;
4943;SDS011;2487;52.224;11.006;2022-10-19T10:09:59;0.50;;;0.50;;
4943;SDS011;2487;52.224;11.006;2022-10-19T10:12:26;0.50;;;0.50;;
4943;SDS011;2487;52.224;11.006;2022-10-19T10:14:51;0.50;;;0.50;;
4943;SDS011;2487;52.224;11.006;2022-10-19T10:17:20;0.50;;;0.50;;
4943;SDS011;2487;52.224;11.006;2022-10-19T10:22:26;0.50;;;0.50;;
4943;SDS011;2487;52.224;11.006;2022-10-19T10:24:53;0.50;;;0.50;;
4943;SDS011;2487;52.224;11.006;2022-10-19T10:27:38;0.50;;;0.50;;
4943;SDS011;2487;52.224;11.006;2022-10-19T10:30:06;0.50;;;0.50;;
4943;SDS011;2487;52.224;11.006;2022-10-19T10:32:37;0.50;;;0.50;;
4943;SDS011;2487;52.224;11.006;2022-10-19T10:35:06;0.50;;;0.50;;
4943;SDS011;2487;52.224;11.006;2022-10-19T10:37:43;0.50;;;0.50;;
4943;SDS011;2487;52.224;11.006;2022-10-19T10:42:47;0.50;;;0.50;;
4943;SDS011;2487;52.224;11.006;2022-10-19T10:45:18;0.50;;;0.50;;
4943;SDS011;2487;52.224;11.006;2022-10-19T10:47:45;0.50;;;0.50;;
4943;SDS011;2487;52.224;11.006;2022-10-19T10:50:22;0.50;;;0.50;;
4943;SDS011;2487;52.224;11.006;2022-10-19T10:53:34;0.50;;;0.50;;
4943;SDS011;2487;52.224;11.006;2022-10-19T10:55:58;0.50;;;0.50;;
4943;SDS011;2487;52.224;11.006;2022-10-19T10:58:40;0.50;;;0.50;;
4943;SDS011;2487;52.224;11.006;2022-10-19T11:01:15;0.50;;;0.50;;
4943;SDS011;2487;52.224;11.006;2022-10-19T11:03:59;0.50;;;0.50;;
4943;SDS011;2487;52.224;11.006;2022-10-19T11:06:30;0.50;;;0.50;;
4943;SDS011;2487;52.224;11.006;2022-10-19T11:09:21;0.50;;;0.50;;
4943;SDS011;2487;52.224;11.006;2022-10-19T11:11:52;0.50;;;0.50;;
4943;SDS011;2487;52.224;11.006;2022-10-19T11:14:31;0.50;;;0.50;;
4943;SDS011;2487;52.224;11.006;2022-10-19T11:17:01;0.50;;;0.50;;
4943;SDS011;2487;52.224;11.006;2022-10-19T11:19:38;0.50;;;0.50;;
4943;SDS011;2487;52.224;11.006;2022-10-19T11:30:23;0.50;;;0.50;;
4943;SDS011;2487;52.224;11.006;2022-10-19T11:38:34;0.50;;;0.50;;
4943;SDS011;2487;52.224;11.006;2022-10-19T11:47:49;0.50;;;0.50;;
4943;SDS011;2487;52.224;11.006;2022-10-19T11:54:57;0.50;;;0.50;;
4943;SDS011;2487;52.224;11.006;2022-10-19T11:57:46;0.50;;;0.50;;
4943;SDS011;2487;52.224;11.006;2022-10-19T12:00:21;0.50;;;0.50;;
4943;SDS011;2487;52.224;11.006;2022-10-19T12:14:39;0.50;;;0.50;;
4943;SDS011;2487;52.224;11.006;2022-10-19T12:17:09;0.50;;;0.50;;
4943;SDS011;2487;52.224;11.006;2022-10-19T12:19:46;0.50;;;0.50;;
4943;SDS011;2487;52.224;11.006;2022-10-19T12:22:20;0.50;;;0.50;;
4943;SDS011;2487;52.224;11.006;2022-10-19T12:24:48;0.50;;;0.50;;
4943;SDS011;2487;52.224;11.006;2022-10-19T12:27:15;0.50;;;0.50;;
4943;SDS011;2487;52.224;11.006;2022-10-19T12:29:46;0.50;;;0.50;;
4943;SDS011;2487;52.224;11.006;2022-10-19T12:32:14;0.50;;;0.50;;
4943;SDS011;2487;52.224;11.006;2022-10-19T12:37:56;0.50;;;0.50;;
4943;SDS011;2487;52.224;11.006;2022-10-19T12:43:40;0.50;;;0.50;;
4943;SDS011;2487;52.224;11.006;2022-10-19T12:46:20;0.50;;;0.50;;
4943;SDS011;2487;52.224;11.006;2022-10-19T12:51:55;0.50;;;0.50;;
4943;SDS011;2487;52.224;11.006;2022-10-19T12:54:31;0.50;;;0.50;;
4943;SDS011;2487;52.224;11.006;2022-10-19T12:57:00;0.50;;;0.50;;
4943;SDS011;2487;52.224;11.006;2022-10-19T12:59:28;0.50;;;0.50;;
4943;SDS011;2487;52.224;11.006;2022-10-19T13:01:56;0.50;;;0.50;;
4943;SDS011;2487;52.224;11.006;2022-10-19T13:04:24;0.50;;;0.50;;
4943;SDS011;2487;52.224;11.006;2022-10-19T13:41:22;0.50;;;0.50;;
4943;SDS011;2487;52.224;11.006;2022-10-19T13:49:04;0.50;;;0.50;;
4943;SDS011;2487;52.224;11.006;2022-10-19T13:54:43;0.50;;;0.50;;
4943;SDS011;2487;52.224;11.006;2022-10-19T14:00:10;0.50;;;0.50;;
4943;SDS011;2487;52.224;11.006;2022-10-19T14:11:17;0.50;;;0.50;;
4943;SDS011;2487;52.224;11.006;2022-10-19T14:13:43;0.50;;;0.50;;
4943;SDS011;2487;52.224;11.006;2022-10-19T14:16:16;0.50;;;0.50;;
4943;SDS011;2487;52.224;11.006;2022-10-19T14:18:50;0.50;;;0.50;;
4943;SDS011;2487;52.224;11.006;2022-10-19T14:21:27;0.50;;;0.50;;
4943;SDS011;2487;52.224;11.006;2022-10-19T14:23:57;0.50;;;0.50;;
4943;SDS011;2487;52.224;11.006;2022-10-19T14:26:24;0.50;;;0.50;;
4943;SDS011;2487;52.224;11.006;2022-10-19T14:28:55;0.50;;;0.50;;
4943;SDS011;2487;52.224;11.006;2022-10-19T14:31:23;0.50;;;0.50;;
4943;SDS011;2487;52.224;11.006;2022-10-19T14:33:54;0.50;;;0.50;;
4943;SDS011;2487;52.224;11.006;2022-10-19T14:36:24;0.50;;;0.50;;
4943;SDS011;2487;52.224;11.006;2022-10-19T14:38:55;0.50;;;0.50;;
4943;SDS011;2487;52.224;11.006;2022-10-19T14:43:50;0.50;;;0.50;;
4943;SDS011;2487;52.224;11.006;2022-10-19T14:46:16;0.50;;;0.50;;
4943;SDS011;2487;52.224;11.006;2022-10-19T14:48:48;0.50;;;0.50;;
4943;SDS011;2487;52.224;11.006;2022-10-19T14:51:17;0.50;;;0.50;;
4943;SDS011;2487;52.224;11.006;2022-10-19T14:53:55;0.50;;;0.50;;
4943;SDS011;2487;52.224;11.006;2022-10-19T14:58:54;0.50;;;0.50;;
4943;SDS011;2487;52.224;11.006;2022-10-19T15:01:23;0.50;;;0.50;;
4943;SDS011;2487;52.224;11.006;2022-10-19T15:03:49;0.50;;;0.50;;
4943;SDS011;2487;52.224;11.006;2022-10-19T15:06:17;0.50;;;0.50;;
4943;SDS011;2487;52.224;11.006;2022-10-19T15:08:48;0.50;;;0.50;;
4943;SDS011;2487;52.224;11.006;2022-10-19T15:11:35;0.50;;;0.50;;
4943;SDS011;2487;52.224;11.006;2022-10-19T15:14:13;0.50;;;0.50;;
4943;SDS011;2487;52.224;11.006;2022-10-19T15:19:14;0.50;;;0.50;;
4943;SDS011;2487;52.224;11.006;2022-10-19T15:21:43;0.50;;;0.50;;
4943;SDS011;2487;52.224;11.006;2022-10-19T15:24:23;0.50;;;0.50;;
4943;SDS011;2487;52.224;11.006;2022-10-19T15:26:51;0.50;;;0.50;;
4943;SDS011;2487;52.224;11.006;2022-10-19T15:29:21;0.50;;;0.50;;
4943;SDS011;2487;52.224;11.006;2022-10-19T15:31:53;0.50;;;0.50;;
4943;SDS011;2487;52.224;11.006;2022-10-19T15:34:21;0.50;;;0.50;;
4943;SDS011;2487;52.224;11.006;2022-10-19T15:36:58;0.50;;;0.50;;
4943;SDS011;2487;52.224;11.006;2022-10-19T15:39:30;0.50;;;0.50;;
4943;SDS011;2487;52.224;11.006;2022-10-19T15:44:56;7.40;;;0.80;;
4943;SDS011;2487;52.224;11.006;2022-10-19T15:47:22;13.33;;;0.90;;
4943;SDS011;2487;52.224;11.006;2022-10-19T15:52:19;12.90;;;0.90;;
4943;SDS011;2487;52.224;11.006;2022-10-19T15:54:48;9.97;;;0.90;;
4943;SDS011;2487;52.224;11.006;2022-10-19T15:59:58;9.13;;;0.90;;
4943;SDS011;2487;52.224;11.006;2022-10-19T16:02:25;9.13;;;0.90;;
4943;SDS011;2487;52.224;11.006;2022-10-19T16:04:52;9.07;;;0.90;;
4943;SDS011;2487;52.224;11.006;2022-10-19T16:07:20;0.70;;;0.60;;
4943;SDS011;2487;52.224;11.006;2022-10-19T16:09:50;0.60;;;0.60;;
4943;SDS011;2487;52.224;11.006;2022-10-19T16:12:15;1.00;;;0.60;;
4943;SDS011;2487;52.224;11.006;2022-10-19T16:14:42;9.47;;;0.83;;
4943;SDS011;2487;52.224;11.006;2022-10-19T16:17:08;11.80;;;0.90;;
4943;SDS011;2487;52.224;11.006;2022-10-19T16:19:37;12.30;;;0.90;;
4943;SDS011;2487;52.224;11.006;2022-10-19T16:22:03;8.17;;;0.90;;
4943;SDS011;2487;52.224;11.006;2022-10-19T16:24:28;18.77;;;0.90;;
4943;SDS011;2487;52.224;11.006;2022-10-19T16:26:54;15.37;;;0.90;;
4943;SDS011;2487;52.224;11.006;2022-10-19T16:29:20;15.23;;;0.90;;
4943;SDS011;2487;52.224;11.006;2022-10-19T16:31:45;15.13;;;0.90;;
4943;SDS011;2487;52.224;11.006;2022-10-19T16:34:11;11.63;;;0.90;;
4943;SDS011;2487;52.224;11.006;2022-10-19T16:36:37;11.63;;;0.90;;
4943;SDS011;2487;52.224;11.006;2022-10-19T16:39:02;11.73;;;0.90;;
4943;SDS011;2487;52.224;11.006;2022-10-19T16:41:29;11.77;;;0.90;;
4943;SDS011;2487;52.224;11.006;2022-10-19T16:43:55;11.60;;;0.90;;
4943;SDS011;2487;52.224;11.006;2022-10-19T16:46:21;11.57;;;0.90;;
4943;SDS011;2487;52.224;11.006;2022-10-19T16:48:48;26.97;;;1.10;;
4943;SDS011;2487;52.224;11.006;2022-10-19T16:53:53;6.40;;;0.80;;
4943;SDS011;2487;52.224;11.006;2022-10-19T16:56:21;2.00;;;0.70;;
4943;SDS011;2487;52.224;11.006;2022-10-19T16:58:48;1.90;;;0.70;;
4943;SDS011;2487;52.224;11.006;2022-10-19T17:01:14;2.00;;;0.70;;
4943;SDS011;2487;52.224;11.006;2022-10-19T17:03:42;1.70;;;0.70;;
4943;SDS011;2487;52.224;11.006;2022-10-19T17:06:09;1.47;;;0.70;;
4943;SDS011;2487;52.224;11.006;2022-10-19T17:08:35;1.40;;;0.70;;
4943;SDS011;2487;52.224;11.006;2022-10-19T17:11:12;1.40;;;0.70;;
4943;SDS011;2487;52.224;11.006;2022-10-19T17:13:41;1.40;;;0.70;;
4943;SDS011;2487;52.224;11.006;2022-10-19T17:16:09;1.40;;;0.70;;
4943;SDS011;2487;52.224;11.006;2022-10-19T17:18:35;8.30;;;0.80;;
4943;SDS011;2487;52.224;11.006;2022-10-19T17:21:22;5.10;;;0.80;;
4943;SDS011;2487;52.224;11.006;2022-10-19T17:23:51;27.80;;;1.10;;
4943;SDS011;2487;52.224;11.006;2022-10-19T17:26:25;34.83;;;1.20;;
4943;SDS011;2487;52.224;11.006;2022-10-19T17:28:55;35.57;;;1.20;;
4943;SDS011;2487;52.224;11.006;2022-10-19T17:31:21;4.90;;;0.80;;
4943;SDS011;2487;52.224;11.006;2022-10-19T17:33:47;5.20;;;0.80;;
4943;SDS011;2487;52.224;11.006;2022-10-19T17:36:15;4.90;;;0.80;;
4943;SDS011;2487;52.224;11.006;2022-10-19T17:38:43;4.83;;;0.80;;
4943;SDS011;2487;52.224;11.006;2022-10-19T17:41:13;1.33;;;0.70;;
4943;SDS011;2487;52.224;11.006;2022-10-19T17:43:41;10.50;;;0.90;;
4943;SDS011;2487;52.224;11.006;2022-10-19T17:46:08;10.47;;;0.90;;
4943;SDS011;2487;52.224;11.006;2022-10-19T17:48:36;9.97;;;0.90;;
4943;SDS011;2487;52.224;11.006;2022-10-19T17:51:04;9.60;;;0.90;;
4943;SDS011;2487;52.224;11.006;2022-10-19T17:53:41;9.60;;;0.90;;
4943;SDS011;2487;52.224;11.006;2022-10-19T17:56:11;8.53;;;0.90;;
4943;SDS011;2487;52.224;11.006;2022-10-19T17:58:39;8.53;;;0.90;;
4943;SDS011;2487;52.224;11.006;2022-10-19T18:01:05;8.50;;;0.90;;
4943;SDS011;2487;52.224;11.006;2022-10-19T18:03:32;8.43;;;0.90;;
4943;SDS011;2487;52.224;11.006;2022-10-19T18:06:00;8.27;;;0.90;;
4943;SDS011;2487;52.224;11.006;2022-10-19T18:08:29;8.50;;;0.90;;